Архив погоды в Боковской

Метеограмма Боковская
Понедельник, 26 Июня
Время местн. Темп Ветер Видим Явления Облачность нижн/средн/верх Атм. давл. Влжн Точка росы ВНГО R Сост. почвы Tg s
Напр Скр Прв ур.ст ур.м изм
21:00 +22.6° Ю 2 - 20 км - переменная облачность 752 760 -0.4 64% +15.4° более 2.5 км - - - -
18:00 +28.9° Ю-З 2 - 20 км - переменная облачность 753 760 -0.5 35% +11.9° - - - - -
15:00 +29.1° Ю-З 3 - 20 км - облачно с прояснениями 753 761 -1 37% +13° 1.5 км - - - -
12:00 +27.8° З 1 - 20 км - облачно с прояснениями 754 762 -0.2 47% +15.4° 1.5 км - - - -
09:00 +24° З 2 - 20 км - облачно 754 762 +1.1 63% +16.5° 1.5 км - - - -
06:00 +17.3° штиль 0 - 20 км - переменная облачность 753 761 +0.5 87% +15.2° - - Влажная (без луж) - -
03:00 +16.5° штиль 0 - 20 км - ясно 753 761 +0.1 85% +14° более 2.5 км - - - -
00:00 +18.3° Ю,Ю-З 2 - 20 км - ясно 753 761 +0.5 91% +16.8° более 2.5 км - - - -
Воскресенье, 25 Июня
Время местн. Темп Ветер Видим Явления Облачность нижн/средн/верх Атм. давл. Влжн Точка росы ВНГО R Сост. почвы Tg s
Напр Скр Прв ур.ст ур.м изм
21:00 +20.4° Ю,Ю-В 1 - 20 км - преимущественно облачно 752 760 +0.8 72% +15.2° 2 км - - - -
18:00 +20.8° штиль 0 - 20 км - преимущественно облачно - 759 -0.3 69% +14.9° 1 км 0 - - -
15:00 +24.4° Ю-З 3 - 20 км - преимущественно облачно 752 760 0 48% +12.6° 1 км - - - -
12:00 +23.8° З,Ю-З 3 - 20 км - переменная облачность 752 760 +0.2 44% +10.9° 1.5 км - - - -
09:00 +21.8° Ю-З 4 - 20 км - переменная облачность 751 759 +0.5 49% +10.5° 1.5 км - - - -
06:00 +11.9° С 2 - 20 км - переменная облачность 751 759 +0.7 88% +9.9° 1 км 0 Влажная (без луж) +88° -
03:00 +11.7° штиль 0 - 20 км - облачно с прояснениями 750 759 +0.2 86% +9.5° - - - - -
00:00 +12.2° штиль 0 - 20 км - переменная облачность 750 758 +1 82% +9.2° более 2.5 км - - - -
Суббота, 24 Июня
Время местн. Темп Ветер Видим Явления Облачность нижн/средн/верх Атм. давл. Влжн Точка росы ВНГО R Сост. почвы Tg s
Напр Скр Прв ур.ст ур.м изм
21:00 +15.1° штиль 0 - 20 км - облачно с прояснениями 749 757 +1.9 82% +12° - - - - -
18:00 +21.1° С 4 - 20 км - облачно с прояснениями 747 755 +2.6 50% +10.3° 1 км - - - -
15:00 +20.4° С-З 4 - 20 км - облачно 745 753 +1 70% +14.8° более 2.5 км - - - -
12:00 +20.3° З,С-З 4 - 20 км ливневый дождь облачно 744 752 -0.6 88% +18.2° более 2.5 км - - - -
09:00 +17.8° Ю 3 - 4 км слабый ливневый дождь облачно 744 752 -0.4 84% +15.1° 1 км - - - -
06:00 +18.2° Ю,Ю-З 3 - 20 км - облачно 746 754 -0.9 81% +14.8° 1 км - Влажная (без луж) - -
03:00 +18.8° Ю 3 - 20 км - облачно 747 755 -1.1 72% +13.6° 1 км - - - -
00:00 +18.6° Ю 3 - 20 км - ясно 748 756 -0.8 71% +13.3° более 2.5 км - - - -
Пятница, 23 Июня
Время местн. Темп Ветер Видим Явления Облачность нижн/средн/верх Атм. давл. Влжн Точка росы ВНГО R Сост. почвы Tg s
Напр Скр Прв ур.ст ур.м изм
21:00 +21° - 2 - 20 км - преимущественно облачно 749 757 -0.1 62% +13.4° 1 км - - - -
18:00 +25.8° Ю-З 3 - 20 км - преимущественно облачно 749 757 -0.9 36% +9.5° 1 км - - - -